createdAt,value
2023-02-15T00:00:11.309Z,1.54
2023-02-15T00:02:38.612Z,1.54
2023-02-15T00:05:06.033Z,1.54
2023-02-15T00:07:33.447Z,1.54
2023-02-15T00:10:00.363Z,1.56
2023-02-15T00:12:27.291Z,1.56
2023-02-15T00:14:54.181Z,1.56
2023-02-15T00:17:22.451Z,1.55
2023-02-15T00:19:49.376Z,1.56
2023-02-15T00:22:16.354Z,1.56
2023-02-15T00:24:43.274Z,1.54
2023-02-15T00:27:10.337Z,1.54
2023-02-15T00:29:37.350Z,1.54
2023-02-15T00:32:04.464Z,1.53
2023-02-15T00:34:31.429Z,1.52
2023-02-15T00:36:58.390Z,1.52
2023-02-15T00:39:25.343Z,1.51
2023-02-15T00:41:52.293Z,1.51
2023-02-15T00:44:19.289Z,1.50
2023-02-15T00:46:46.301Z,1.50
2023-02-15T00:49:13.264Z,1.50
2023-02-15T00:51:40.479Z,1.51
2023-02-15T00:54:07.921Z,1.52
2023-02-15T00:56:34.871Z,1.52
2023-02-15T00:59:01.954Z,1.53
2023-02-15T01:01:28.900Z,1.52
2023-02-15T01:03:55.964Z,1.52
2023-02-15T01:06:22.953Z,1.51
2023-02-15T01:08:49.956Z,1.51
2023-02-15T01:11:22.736Z,1.51
2023-02-15T01:13:54.690Z,1.50
2023-02-15T01:16:22.370Z,1.50
2023-02-15T01:18:49.489Z,1.50
2023-02-15T01:21:22.983Z,1.50
2023-02-15T01:23:50.376Z,1.49
2023-02-15T01:26:17.876Z,1.50
2023-02-15T01:28:45.626Z,1.49
2023-02-15T01:31:19.264Z,1.48
2023-02-15T01:33:47.836Z,1.50
2023-02-15T01:36:15.620Z,1.50
2023-02-15T01:38:42.892Z,1.50
2023-02-15T01:41:25.434Z,1.50
2023-02-15T01:44:00.669Z,1.49
2023-02-15T01:46:44.288Z,1.50
2023-02-15T01:49:17.371Z,1.51
2023-02-15T01:51:48.343Z,1.50
2023-02-15T01:54:34.854Z,1.50
2023-02-15T01:57:17.536Z,1.50
2023-02-15T01:59:52.793Z,1.49
2023-02-15T02:02:25.372Z,1.48
2023-02-15T02:04:58.878Z,1.47
2023-02-15T02:07:30.200Z,1.47
2023-02-15T02:10:02.095Z,1.48
2023-02-15T02:12:30.695Z,1.46
2023-02-15T02:14:58.441Z,1.47
2023-02-15T02:17:48.394Z,1.47
2023-02-15T02:20:30.985Z,1.47
2023-02-15T02:23:28.123Z,1.46
2023-02-15T02:27:07.951Z,1.46
2023-02-15T02:30:06.958Z,1.44
2023-02-15T02:33:04.732Z,1.44
2023-02-15T02:35:48.094Z,1.44
2023-02-15T02:38:52.001Z,1.43
2023-02-15T02:41:52.739Z,1.43
2023-02-15T02:44:30.003Z,1.43
2023-02-15T02:47:30.800Z,1.42
2023-02-15T02:50:13.990Z,1.42
2023-02-15T02:53:07.265Z,1.43
2023-02-15T02:55:54.676Z,1.43
2023-02-15T02:58:46.475Z,1.44
2023-02-15T03:01:34.239Z,1.45
2023-02-15T03:04:12.326Z,1.45
2023-02-15T03:06:57.190Z,1.45
2023-02-15T03:09:45.208Z,1.45
2023-02-15T03:12:19.113Z,1.46
2023-02-15T03:14:56.392Z,1.46
2023-02-15T03:17:27.313Z,1.47
2023-02-15T03:19:58.531Z,1.47
2023-02-15T03:22:48.867Z,1.48
2023-02-15T03:25:25.752Z,1.48
2023-02-15T03:28:00.084Z,1.48
2023-02-15T03:30:30.429Z,1.49
2023-02-15T03:33:00.755Z,1.48
2023-02-15T03:35:38.567Z,1.49
2023-02-15T03:38:10.004Z,1.50
2023-02-15T03:41:07.998Z,1.52
2023-02-15T03:43:46.863Z,1.51
2023-02-15T03:46:40.860Z,1.51
2023-02-15T03:49:23.722Z,1.52
2023-02-15T03:51:55.159Z,1.52
2023-02-15T03:54:44.721Z,1.52
2023-02-15T03:57:58.454Z,1.53
2023-02-15T04:00:44.692Z,1.54
2023-02-15T04:04:21.123Z,1.54
2023-02-15T04:06:48.375Z,1.56
2023-02-15T04:09:34.237Z,1.55
2023-02-15T04:12:01.176Z,1.55
2023-02-15T04:14:46.601Z,1.56
2023-02-15T04:17:13.508Z,1.55
2023-02-15T04:19:58.934Z,1.57
2023-02-15T04:22:44.108Z,1.58
2023-02-15T04:25:13.585Z,1.57
2023-02-15T04:27:44.248Z,1.57
2023-02-15T04:30:13.705Z,1.57
2023-02-15T04:32:40.980Z,1.60
2023-02-15T04:35:08.573Z,1.61
2023-02-15T04:37:35.921Z,1.61
2023-02-15T04:40:04.441Z,1.61
2023-02-15T04:42:31.505Z,1.62
2023-02-15T04:44:58.539Z,1.62
2023-02-15T04:47:26.026Z,1.63
2023-02-15T04:49:53.019Z,1.63
2023-02-15T04:52:19.966Z,1.63
2023-02-15T04:54:47.289Z,1.63
2023-02-15T04:57:14.654Z,1.63
2023-02-15T04:59:41.668Z,1.63
2023-02-15T05:02:08.651Z,1.62
2023-02-15T05:04:35.714Z,1.62
2023-02-15T05:07:02.684Z,1.62
2023-02-15T05:09:29.634Z,1.60
2023-02-15T05:11:56.554Z,1.61
2023-02-15T05:14:23.630Z,1.59
2023-02-15T05:16:50.702Z,1.60
2023-02-15T05:19:17.766Z,1.60
2023-02-15T05:21:44.652Z,1.60
2023-02-15T05:24:29.985Z,1.60
2023-02-15T05:27:15.262Z,1.60
2023-02-15T05:29:42.206Z,1.59
2023-02-15T05:32:09.269Z,1.59
2023-02-15T05:34:36.236Z,1.58
2023-02-15T05:37:03.240Z,1.56
2023-02-15T05:39:30.152Z,1.56
2023-02-15T05:42:02.468Z,1.55
2023-02-15T05:44:29.389Z,1.55
2023-02-15T05:46:56.364Z,1.55
2023-02-15T05:49:23.410Z,1.54
2023-02-15T05:51:50.343Z,1.55
2023-02-15T05:54:17.340Z,1.55
2023-02-15T05:56:44.299Z,1.56
2023-02-15T05:59:11.249Z,1.56
2023-02-15T06:01:38.244Z,1.54
2023-02-15T06:04:05.317Z,1.55
2023-02-15T06:07:27.534Z,1.54
2023-02-15T06:10:13.646Z,1.52
2023-02-15T06:12:40.815Z,1.53
2023-02-15T06:15:08.172Z,1.53
2023-02-15T06:17:35.086Z,1.51
2023-02-15T06:20:02.151Z,1.51
2023-02-15T06:22:29.061Z,1.51
2023-02-15T06:24:55.997Z,1.49
2023-02-15T06:27:22.909Z,1.49
2023-02-15T06:29:50.052Z,1.47
2023-02-15T06:32:16.968Z,1.45
2023-02-15T06:34:43.899Z,1.45
2023-02-15T06:37:10.783Z,1.44
2023-02-15T06:39:37.736Z,1.42
2023-02-15T06:42:04.709Z,1.40
2023-02-15T06:44:31.608Z,1.40
2023-02-15T06:46:58.551Z,1.39
2023-02-15T06:49:25.808Z,1.38
2023-02-15T06:51:52.800Z,1.35
2023-02-15T06:54:19.866Z,1.33
2023-02-15T06:56:46.835Z,1.31
2023-02-15T06:59:13.759Z,1.30
2023-02-15T07:01:40.736Z,1.28
2023-02-15T07:04:07.732Z,1.26
2023-02-15T07:06:35.020Z,1.26
2023-02-15T07:09:02.715Z,1.25
2023-02-15T07:11:48.408Z,1.21
2023-02-15T07:14:15.372Z,1.19
2023-02-15T07:16:42.271Z,1.16
2023-02-15T07:19:09.348Z,1.15
2023-02-15T07:21:36.987Z,1.13
2023-02-15T07:24:04.509Z,1.12
2023-02-15T07:26:33.380Z,1.10
2023-02-15T07:29:00.363Z,1.09
2023-02-15T07:31:27.342Z,1.08
2023-02-15T07:33:54.353Z,1.07
2023-02-15T07:36:21.274Z,1.06
2023-02-15T07:38:48.392Z,1.07
2023-02-15T07:41:16.589Z,1.07
2023-02-15T07:43:45.672Z,1.07
2023-02-15T07:46:16.134Z,1.06
2023-02-15T07:48:44.250Z,1.05
2023-02-15T07:51:12.690Z,1.05
2023-02-15T07:53:40.269Z,1.05
2023-02-15T07:56:11.857Z,1.03
2023-02-15T07:58:54.849Z,1.02
2023-02-15T08:01:27.705Z,1.02
2023-02-15T08:03:55.961Z,1.01
2023-02-15T08:06:25.977Z,1.00
2023-02-15T08:08:52.952Z,1.01
2023-02-15T08:11:26.702Z,1.01
2023-02-15T08:14:22.911Z,1.00
2023-02-15T08:16:56.550Z,1.01
2023-02-15T08:19:29.502Z,1.01
2023-02-15T08:21:59.456Z,1.01
2023-02-15T08:24:29.863Z,1.00
2023-02-15T08:26:57.486Z,1.01
2023-02-15T08:29:28.301Z,1.00
2023-02-15T08:32:03.095Z,1.01
2023-02-15T08:34:33.221Z,1.00
2023-02-15T08:37:00.301Z,1.00
2023-02-15T08:39:27.484Z,0.99
2023-02-15T08:41:54.406Z,0.98
2023-02-15T08:44:21.800Z,0.99
2023-02-15T08:46:50.079Z,0.99
2023-02-15T08:49:20.721Z,0.98
2023-02-15T08:51:49.349Z,0.96
2023-02-15T08:54:20.004Z,0.96
2023-02-15T08:56:47.631Z,0.97
2023-02-15T08:59:21.443Z,0.99
2023-02-15T09:01:51.603Z,1.01
2023-02-15T09:04:18.787Z,1.02
2023-02-15T09:06:49.069Z,1.01
2023-02-15T09:09:17.513Z,1.00
2023-02-15T09:11:47.876Z,1.00
2023-02-15T09:14:22.379Z,0.98
2023-02-15T09:16:51.746Z,1.00
2023-02-15T09:19:21.508Z,1.01
2023-02-15T09:21:49.352Z,1.05
2023-02-15T09:24:18.054Z,1.05
2023-02-15T09:26:48.328Z,1.08
2023-02-15T09:29:17.264Z,1.07
2023-02-15T09:31:47.817Z,1.08
2023-02-15T09:34:17.931Z,1.09
2023-02-15T09:36:45.570Z,1.10
2023-02-15T09:39:19.355Z,1.10
2023-02-15T09:42:07.776Z,1.11
2023-02-15T09:45:27.830Z,1.14
2023-02-15T09:48:13.248Z,1.16
2023-02-15T09:51:01.791Z,1.18
2023-02-15T09:54:09.203Z,1.19
2023-02-15T09:56:48.910Z,1.15
2023-02-15T09:59:57.826Z,1.14
2023-02-15T10:03:14.113Z,1.15
2023-02-15T10:05:57.758Z,1.15
2023-02-15T10:08:56.540Z,1.18
2023-02-15T10:11:44.259Z,1.21
2023-02-15T10:14:40.756Z,1.26
2023-02-15T10:17:26.764Z,1.29
2023-02-15T10:20:05.634Z,1.33
2023-02-15T10:23:08.269Z,1.39
2023-02-15T10:26:17.465Z,1.43
2023-02-15T10:28:56.222Z,1.46
2023-02-15T10:31:44.280Z,1.48
2023-02-15T10:34:21.075Z,1.48
2023-02-15T10:37:00.877Z,1.49
2023-02-15T10:40:06.138Z,1.50
2023-02-15T10:42:46.521Z,1.50
2023-02-15T10:45:49.073Z,1.51
2023-02-15T10:48:52.422Z,1.52
2023-02-15T10:52:00.128Z,1.54
2023-02-15T10:54:59.064Z,1.56
2023-02-15T10:57:54.296Z,1.58
2023-02-15T11:01:04.906Z,1.60
2023-02-15T11:04:02.310Z,1.63
2023-02-15T11:06:29.896Z,1.64
2023-02-15T11:09:13.936Z,1.68
2023-02-15T11:11:45.861Z,1.71
2023-02-15T11:14:47.306Z,1.76
2023-02-15T11:17:18.767Z,1.81
2023-02-15T11:20:03.630Z,1.85
2023-02-15T11:22:34.386Z,1.88
2023-02-15T11:25:03.233Z,1.93
2023-02-15T11:27:35.865Z,1.96
2023-02-15T11:30:14.553Z,2.00
2023-02-15T11:32:45.775Z,2.04
2023-02-15T11:35:12.775Z,2.05
2023-02-15T11:37:59.978Z,2.10
2023-02-15T11:40:52.485Z,2.13
2023-02-15T11:43:37.934Z,2.17
2023-02-15T11:46:05.707Z,2.22
2023-02-15T11:48:33.684Z,2.26
2023-02-15T11:51:03.350Z,2.31
2023-02-15T11:53:36.682Z,2.34
2023-02-15T11:56:05.145Z,2.38
2023-02-15T11:58:41.471Z,2.43
2023-02-15T12:01:43.497Z,2.48
2023-02-15T12:04:35.581Z,2.52
2023-02-15T12:07:26.587Z,2.57
2023-02-15T12:10:34.756Z,2.61
2023-02-15T12:13:19.195Z,2.66
2023-02-15T12:15:57.170Z,2.69
2023-02-15T12:18:45.265Z,2.74
2023-02-15T12:21:40.653Z,2.78
2023-02-15T12:24:25.991Z,2.78
2023-02-15T12:27:14.666Z,2.77
2023-02-15T12:29:47.358Z,2.77
2023-02-15T12:32:36.888Z,2.76
2023-02-15T12:35:28.558Z,2.79
2023-02-15T12:38:10.459Z,2.84
2023-02-15T12:40:39.340Z,2.92
2023-02-15T12:43:26.126Z,3.03
2023-02-15T12:45:53.048Z,3.17
2023-02-15T12:48:21.585Z,3.31
2023-02-15T12:50:58.308Z,3.48
2023-02-15T12:53:34.971Z,3.72
2023-02-15T12:56:08.249Z,3.93
2023-02-15T12:58:37.997Z,4.15
2023-02-15T13:01:18.644Z,4.37
2023-02-15T13:04:15.630Z,4.56
2023-02-15T13:06:52.606Z,4.75
2023-02-15T13:09:26.908Z,4.92
2023-02-15T13:11:54.648Z,5.00
2023-02-15T13:14:33.175Z,5.12
2023-02-15T13:17:03.864Z,5.23
2023-02-15T13:19:43.564Z,5.32
2023-02-15T13:22:28.186Z,5.41
2023-02-15T13:24:59.232Z,5.47
2023-02-15T13:27:35.515Z,5.55
2023-02-15T13:30:22.126Z,5.54
2023-02-15T13:32:53.625Z,5.56
2023-02-15T13:35:21.668Z,5.57
2023-02-15T13:38:16.783Z,5.64
2023-02-15T13:41:01.219Z,5.70
2023-02-15T13:43:49.038Z,5.84
2023-02-15T13:46:39.902Z,5.89
2023-02-15T13:49:53.432Z,6.05
2023-02-15T13:52:26.429Z,6.15
2023-02-15T13:55:10.813Z,6.32
2023-02-15T13:57:52.336Z,6.42
2023-02-15T14:00:49.860Z,6.53
2023-02-15T14:03:54.769Z,6.63
2023-02-15T14:06:48.893Z,6.65
2023-02-15T14:09:49.473Z,6.72
2023-02-15T14:12:37.284Z,6.81
2023-02-15T14:15:50.095Z,6.92
2023-02-15T14:18:48.572Z,6.96
2023-02-15T14:21:31.448Z,6.99
2023-02-15T14:24:25.157Z,7.05
2023-02-15T14:27:37.278Z,7.08
2023-02-15T14:30:26.386Z,7.13
2023-02-15T14:33:01.310Z,7.17
2023-02-15T14:35:31.131Z,7.21
2023-02-15T14:38:19.091Z,7.26
2023-02-15T14:41:14.099Z,7.30
2023-02-15T14:44:21.256Z,7.33
2023-02-15T14:47:18.497Z,7.33
2023-02-15T14:49:45.423Z,7.33
2023-02-15T14:52:13.231Z,7.38
2023-02-15T14:55:00.404Z,7.41
2023-02-15T14:57:29.247Z,7.45
2023-02-15T15:00:01.475Z,7.46
2023-02-15T15:02:49.894Z,7.50
2023-02-15T15:05:35.457Z,7.51
2023-02-15T15:08:05.736Z,7.45
2023-02-15T15:10:47.497Z,7.42
2023-02-15T15:13:32.726Z,7.38
2023-02-15T15:16:36.095Z,7.35
2023-02-15T15:19:10.076Z,7.27
2023-02-15T15:21:57.192Z,7.24
2023-02-15T15:24:39.223Z,7.14
2023-02-15T15:27:51.950Z,7.09
2023-02-15T15:30:18.860Z,7.00
2023-02-15T15:32:55.042Z,6.95
2023-02-15T15:35:38.328Z,6.91
2023-02-15T15:38:39.275Z,6.86
2023-02-15T15:41:38.933Z,6.78
2023-02-15T15:44:35.432Z,6.73
2023-02-15T15:47:24.956Z,6.67
2023-02-15T15:49:58.351Z,6.62
2023-02-15T15:52:27.193Z,6.60
2023-02-15T15:55:03.600Z,6.59
2023-02-15T15:57:36.036Z,6.55
2023-02-15T16:00:06.697Z,6.53
2023-02-15T16:02:52.328Z,6.49
2023-02-15T16:05:19.934Z,6.44
2023-02-15T16:07:47.447Z,6.36
2023-02-15T16:10:30.781Z,6.31
2023-02-15T16:12:57.735Z,6.23
2023-02-15T16:15:34.503Z,6.17
2023-02-15T16:18:02.504Z,6.13
2023-02-15T16:20:36.860Z,6.08
2023-02-15T16:23:44.769Z,6.04
2023-02-15T16:26:46.482Z,5.98
2023-02-15T16:29:19.338Z,5.92
2023-02-15T16:32:07.034Z,5.85
2023-02-15T16:34:34.275Z,5.79
2023-02-15T16:37:19.474Z,5.72
2023-02-15T16:39:49.040Z,5.63
2023-02-15T16:42:17.976Z,5.55
2023-02-15T16:44:49.252Z,5.46
2023-02-15T16:47:30.543Z,5.36
2023-02-15T16:50:03.048Z,5.28
2023-02-15T16:52:30.666Z,5.18
2023-02-15T16:55:05.346Z,5.10
2023-02-15T16:57:39.016Z,5.01
2023-02-15T17:00:17.828Z,4.94
2023-02-15T17:03:21.508Z,4.84
2023-02-15T17:05:58.671Z,4.74
2023-02-15T17:08:34.149Z,4.65
2023-02-15T17:11:20.946Z,4.55
2023-02-15T17:14:15.337Z,4.48
2023-02-15T17:16:50.295Z,4.41
2023-02-15T17:19:31.400Z,4.33
2023-02-15T17:22:07.615Z,4.27
2023-02-15T17:24:44.972Z,4.20
2023-02-15T17:27:27.352Z,4.13
2023-02-15T17:30:13.672Z,4.04
2023-02-15T17:32:55.955Z,3.94
2023-02-15T17:35:29.177Z,3.85
2023-02-15T17:38:28.564Z,3.74
2023-02-15T17:40:55.469Z,3.66
2023-02-15T17:43:22.396Z,3.59
2023-02-15T17:45:51.178Z,3.48
2023-02-15T17:48:36.872Z,3.39
2023-02-15T17:51:07.479Z,3.30
2023-02-15T17:53:34.829Z,3.23
2023-02-15T17:56:10.262Z,3.17
2023-02-15T17:58:38.172Z,3.12
2023-02-15T18:01:36.941Z,3.07
2023-02-15T18:04:23.957Z,3.01
2023-02-15T18:07:10.528Z,2.96
2023-02-15T18:09:55.739Z,2.92
2023-02-15T18:12:24.820Z,2.89
2023-02-15T18:14:54.339Z,2.86
2023-02-15T18:17:32.732Z,2.83
2023-02-15T18:20:05.424Z,2.80
2023-02-15T18:22:33.583Z,2.77
2023-02-15T18:25:00.524Z,2.76
2023-02-15T18:27:27.534Z,2.73
2023-02-15T18:29:54.535Z,2.69
2023-02-15T18:32:34.728Z,2.65
2023-02-15T18:35:03.271Z,2.62
2023-02-15T18:37:33.284Z,2.61
2023-02-15T18:40:03.815Z,2.57
2023-02-15T18:42:39.350Z,2.54
2023-02-15T18:45:19.833Z,2.51
2023-02-15T18:47:47.880Z,2.48
2023-02-15T18:50:19.460Z,2.45
2023-02-15T18:52:50.476Z,2.42
2023-02-15T18:55:22.778Z,2.38
2023-02-15T18:57:52.353Z,2.35
2023-02-15T19:00:34.641Z,2.31
2023-02-15T19:03:02.706Z,2.28
2023-02-15T19:05:31.813Z,2.24
2023-02-15T19:08:01.895Z,2.23
2023-02-15T19:10:31.606Z,2.18
2023-02-15T19:12:58.660Z,2.15
2023-02-15T19:15:30.211Z,2.12
2023-02-15T19:17:57.197Z,2.10
2023-02-15T19:20:30.203Z,2.07
2023-02-15T19:23:00.226Z,2.03
2023-02-15T19:25:34.254Z,2.00
2023-02-15T19:28:19.086Z,1.96
2023-02-15T19:30:46.378Z,1.94
2023-02-15T19:33:20.109Z,1.90
2023-02-15T19:35:52.314Z,1.87
2023-02-15T19:38:26.441Z,1.84
2023-02-15T19:40:56.666Z,1.84
2023-02-15T19:43:26.230Z,1.82
2023-02-15T19:45:53.638Z,1.81
2023-02-15T19:48:20.605Z,1.79
2023-02-15T19:50:49.423Z,1.79
2023-02-15T19:53:27.221Z,1.77
2023-02-15T19:55:55.375Z,1.77
2023-02-15T19:58:23.945Z,1.75
2023-02-15T20:00:51.778Z,1.73
2023-02-15T20:03:18.752Z,1.73
2023-02-15T20:05:46.999Z,1.71
2023-02-15T20:08:19.791Z,1.70
2023-02-15T20:10:46.805Z,1.68
2023-02-15T20:13:16.661Z,1.68
2023-02-15T20:15:44.624Z,1.67
2023-02-15T20:18:12.530Z,1.66
2023-02-15T20:20:48.747Z,1.63
2023-02-15T20:23:36.255Z,1.62
2023-02-15T20:26:18.120Z,1.61
2023-02-15T20:28:46.266Z,1.59
2023-02-15T20:31:19.102Z,1.58
2023-02-15T20:33:46.275Z,1.56
2023-02-15T20:36:17.555Z,1.53
2023-02-15T20:38:45.500Z,1.51
2023-02-15T20:41:35.013Z,1.49
2023-02-15T20:44:26.153Z,1.45
2023-02-15T20:46:56.525Z,1.43
2023-02-15T20:49:27.166Z,1.41
2023-02-15T20:51:56.025Z,1.39
2023-02-15T20:54:28.618Z,1.39
2023-02-15T20:56:55.637Z,1.36
2023-02-15T20:59:28.930Z,1.34
2023-02-15T21:02:13.226Z,1.32
2023-02-15T21:04:40.382Z,1.29
2023-02-15T21:07:07.369Z,1.26
2023-02-15T21:09:34.373Z,1.23
2023-02-15T21:12:02.640Z,1.20
2023-02-15T21:14:29.739Z,1.17
2023-02-15T21:16:56.750Z,1.15
2023-02-15T21:19:24.673Z,1.11
2023-02-15T21:21:53.350Z,1.07
2023-02-15T21:24:28.142Z,1.04
2023-02-15T21:26:58.543Z,1.01
2023-02-15T21:29:30.078Z,0.98
2023-02-15T21:32:01.176Z,0.96
2023-02-15T21:34:28.160Z,0.91
2023-02-15T21:36:55.276Z,0.88
2023-02-15T21:39:25.886Z,0.84
2023-02-15T21:42:24.932Z,0.82
2023-02-15T21:45:10.347Z,0.78
2023-02-15T21:47:52.095Z,0.75
2023-02-15T21:50:43.193Z,0.72
2023-02-15T21:53:19.789Z,0.67
2023-02-15T21:55:46.748Z,0.65
2023-02-15T21:58:24.306Z,0.63
2023-02-15T22:00:54.753Z,0.61
2023-02-15T22:03:30.110Z,0.58
2023-02-15T22:05:57.177Z,0.56
2023-02-15T22:08:24.247Z,0.52
2023-02-15T22:10:53.249Z,0.52
2023-02-15T22:13:33.356Z,0.48
2023-02-15T22:16:00.355Z,0.48
2023-02-15T22:18:33.529Z,0.46
2023-02-15T22:21:02.481Z,0.43
2023-02-15T22:23:29.693Z,0.43
2023-02-15T22:26:02.837Z,0.40
2023-02-15T22:28:38.041Z,0.40
2023-02-15T22:31:14.663Z,0.39
2023-02-15T22:33:42.380Z,0.38
2023-02-15T22:36:28.702Z,0.39
2023-02-15T22:38:56.809Z,0.39
2023-02-15T22:41:28.793Z,0.37
2023-02-15T22:43:57.018Z,0.38
2023-02-15T22:46:25.781Z,0.36
2023-02-15T22:48:52.689Z,0.35
2023-02-15T22:51:23.362Z,0.33
2023-02-15T22:53:53.976Z,0.30
2023-02-15T22:56:32.131Z,0.30
2023-02-15T22:59:05.558Z,0.30
2023-02-15T23:01:36.631Z,0.30
2023-02-15T23:04:04.340Z,0.31
2023-02-15T23:06:34.180Z,0.33
2023-02-15T23:09:01.237Z,0.35
2023-02-15T23:11:28.606Z,0.37
2023-02-15T23:13:56.009Z,0.39
2023-02-15T23:16:23.007Z,0.40
2023-02-15T23:18:50.053Z,0.44
2023-02-15T23:21:27.905Z,0.44
2023-02-15T23:24:10.513Z,0.45
2023-02-15T23:26:37.404Z,0.46
2023-02-15T23:29:13.377Z,0.47
2023-02-15T23:31:45.052Z,0.50
2023-02-15T23:34:25.538Z,0.49
2023-02-15T23:36:52.601Z,0.48
2023-02-15T23:39:44.752Z,0.46
2023-02-15T23:42:19.786Z,0.46
2023-02-15T23:44:47.931Z,0.45
2023-02-15T23:47:46.818Z,0.46
2023-02-15T23:50:27.043Z,0.44
2023-02-15T23:52:55.623Z,0.44
2023-02-15T23:55:25.305Z,0.42
2023-02-15T23:57:53.237Z,0.41
